sensor_id;sensor_type;location;lat;lon;timestamp;pressure;altitude;pressure_sealevel;temperature;humidity
7824;BME280;3957;48.61947800;9.05303100;2022-08-03T00:00:19;96210.28;;;16.29;100.00
7824;BME280;3957;48.61947800;9.05303100;2022-08-03T00:01:40;96211.63;;;16.27;100.00
7824;BME280;3957;48.61947800;9.05303100;2022-08-03T00:03:01;96211.00;;;16.25;100.00
7824;BME280;3957;48.61947800;9.05303100;2022-08-03T00:04:22;96213.94;;;16.23;100.00
7824;BME280;3957;48.61947800;9.05303100;2022-08-03T00:05:42;96206.66;;;16.24;100.00
7824;BME280;3957;48.61947800;9.05303100;2022-08-03T00:07:03;96207.50;;;16.24;100.00
7824;BME280;3957;48.61947800;9.05303100;2022-08-03T00:08:24;96213.94;;;16.23;100.00
7824;BME280;3957;48.61947800;9.05303100;2022-08-03T00:09:45;96197.03;;;16.28;100.00
7824;BME280;3957;48.61947800;9.05303100;2022-08-03T00:11:05;96204.56;;;16.26;100.00
7824;BME280;3957;48.61947800;9.05303100;2022-08-03T00:12:26;96205.84;;;16.23;100.00
7824;BME280;3957;48.61947800;9.05303100;2022-08-03T00:13:47;96202.56;;;16.21;100.00
7824;BME280;3957;48.61947800;9.05303100;2022-08-03T00:15:08;96208.78;;;16.22;100.00
7824;BME280;3957;48.61947800;9.05303100;2022-08-03T00:16:29;96204.81;;;16.24;100.00
7824;BME280;3957;48.61947800;9.05303100;2022-08-03T00:17:50;96207.03;;;16.27;100.00
7824;BME280;3957;48.61947800;9.05303100;2022-08-03T00:19:11;96209.84;;;16.32;100.00
7824;BME280;3957;48.61947800;9.05303100;2022-08-03T00:20:31;96214.75;;;16.36;100.00
7824;BME280;3957;48.61947800;9.05303100;2022-08-03T00:21:52;96211.00;;;16.37;100.00
7824;BME280;3957;48.61947800;9.05303100;2022-08-03T00:23:13;96207.72;;;16.35;100.00
7824;BME280;3957;48.61947800;9.05303100;2022-08-03T00:24:34;96208.56;;;16.35;100.00
7824;BME280;3957;48.61947800;9.05303100;2022-08-03T00:25:56;96206.41;;;16.37;100.00
7824;BME280;3957;48.61947800;9.05303100;2022-08-03T00:27:16;96201.00;;;16.37;100.00
7824;BME280;3957;48.61947800;9.05303100;2022-08-03T00:28:37;96203.72;;;16.37;100.00
7824;BME280;3957;48.61947800;9.05303100;2022-08-03T00:29:58;96211.25;;;16.35;100.00
7824;BME280;3957;48.61947800;9.05303100;2022-08-03T00:31:19;96206.91;;;16.34;100.00
7824;BME280;3957;48.61947800;9.05303100;2022-08-03T00:32:39;96203.84;;;16.30;100.00
7824;BME280;3957;48.61947800;9.05303100;2022-08-03T00:34:00;96206.78;;;16.29;100.00
7824;BME280;3957;48.61947800;9.05303100;2022-08-03T00:35:21;96201.63;;;16.27;100.00
7824;BME280;3957;48.61947800;9.05303100;2022-08-03T00:36:42;96199.66;;;16.23;100.00
7824;BME280;3957;48.61947800;9.05303100;2022-08-03T00:38:03;96208.44;;;16.18;100.00
7824;BME280;3957;48.61947800;9.05303100;2022-08-03T00:39:24;96200.00;;;16.14;100.00
7824;BME280;3957;48.61947800;9.05303100;2022-08-03T00:40:45;96205.03;;;16.11;100.00
7824;BME280;3957;48.61947800;9.05303100;2022-08-03T00:42:06;96201.78;;;16.09;100.00
7824;BME280;3957;48.61947800;9.05303100;2022-08-03T00:43:27;96203.88;;;16.07;100.00
7824;BME280;3957;48.61947800;9.05303100;2022-08-03T00:44:47;96203.97;;;16.00;100.00
7824;BME280;3957;48.61947800;9.05303100;2022-08-03T00:46:08;96199.75;;;16.04;100.00
7824;BME280;3957;48.61947800;9.05303100;2022-08-03T00:47:29;96201.16;;;16.07;100.00
7824;BME280;3957;48.61947800;9.05303100;2022-08-03T00:48:51;96203.41;;;16.10;100.00
7824;BME280;3957;48.61947800;9.05303100;2022-08-03T00:50:12;96210.81;;;16.14;100.00
7824;BME280;3957;48.61947800;9.05303100;2022-08-03T00:51:33;96212.19;;;16.17;100.00
7824;BME280;3957;48.61947800;9.05303100;2022-08-03T00:52:56;96210.31;;;16.18;100.00
7824;BME280;3957;48.61947800;9.05303100;2022-08-03T00:54:17;96207.03;;;16.15;100.00
7824;BME280;3957;48.61947800;9.05303100;2022-08-03T00:55:40;96199.75;;;16.16;100.00
7824;BME280;3957;48.61947800;9.05303100;2022-08-03T00:57:01;96203.63;;;16.20;100.00
7824;BME280;3957;48.61947800;9.05303100;2022-08-03T00:58:22;96203.97;;;16.24;100.00
7824;BME280;3957;48.61947800;9.05303100;2022-08-03T00:59:43;96192.47;;;16.28;100.00
7824;BME280;3957;48.61947800;9.05303100;2022-08-03T01:01:04;96198.78;;;16.34;100.00
7824;BME280;3957;48.61947800;9.05303100;2022-08-03T01:02:27;96192.91;;;16.37;100.00
7824;BME280;3957;48.61947800;9.05303100;2022-08-03T01:03:48;96194.81;;;16.37;100.00
7824;BME280;3957;48.61947800;9.05303100;2022-08-03T01:05:09;96195.84;;;16.36;100.00
7824;BME280;3957;48.61947800;9.05303100;2022-08-03T01:07:25;96191.88;;;16.38;100.00
7824;BME280;3957;48.61947800;9.05303100;2022-08-03T01:08:50;96182.22;;;16.42;100.00
7824;BME280;3957;48.61947800;9.05303100;2022-08-03T01:12:07;96193.34;;;16.46;100.00
7824;BME280;3957;48.61947800;9.05303100;2022-08-03T01:15:30;96187.03;;;16.40;100.00
7824;BME280;3957;48.61947800;9.05303100;2022-08-03T01:18:20;96192.44;;;16.40;100.00
7824;BME280;3957;48.61947800;9.05303100;2022-08-03T01:19:49;96184.56;;;16.39;100.00
7824;BME280;3957;48.61947800;9.05303100;2022-08-03T01:22:05;96183.16;;;16.36;100.00
7824;BME280;3957;48.61947800;9.05303100;2022-08-03T01:26:47;96180.47;;;16.36;100.00
7824;BME280;3957;48.61947800;9.05303100;2022-08-03T01:28:32;96175.78;;;16.31;100.00
7824;BME280;3957;48.61947800;9.05303100;2022-08-03T01:31:31;96172.97;;;16.26;100.00
7824;BME280;3957;48.61947800;9.05303100;2022-08-03T01:33:03;96167.81;;;16.25;100.00
7824;BME280;3957;48.61947800;9.05303100;2022-08-03T01:34:28;96172.28;;;16.19;100.00
7824;BME280;3957;48.61947800;9.05303100;2022-08-03T01:35:58;96165.59;;;16.10;100.00
7824;BME280;3957;48.61947800;9.05303100;2022-08-03T01:37:25;96166.19;;;16.00;100.00
7824;BME280;3957;48.61947800;9.05303100;2022-08-03T01:38:54;96170.91;;;15.93;100.00
7824;BME280;3957;48.61947800;9.05303100;2022-08-03T01:40:16;96170.78;;;15.88;100.00
7824;BME280;3957;48.61947800;9.05303100;2022-08-03T01:41:41;96168.56;;;15.85;100.00
7824;BME280;3957;48.61947800;9.05303100;2022-08-03T01:43:05;96163.97;;;15.85;100.00
7824;BME280;3957;48.61947800;9.05303100;2022-08-03T01:44:29;96164.56;;;15.87;100.00
7824;BME280;3957;48.61947800;9.05303100;2022-08-03T01:45:55;96159.41;;;15.86;100.00
7824;BME280;3957;48.61947800;9.05303100;2022-08-03T01:47:19;96161.50;;;15.84;100.00
7824;BME280;3957;48.61947800;9.05303100;2022-08-03T01:48:42;96159.28;;;15.80;100.00
7824;BME280;3957;48.61947800;9.05303100;2022-08-03T01:50:04;96160.78;;;15.76;100.00
7824;BME280;3957;48.61947800;9.05303100;2022-08-03T01:51:27;96161.25;;;15.73;100.00
7824;BME280;3957;48.61947800;9.05303100;2022-08-03T01:52:49;96153.41;;;15.72;100.00
7824;BME280;3957;48.61947800;9.05303100;2022-08-03T01:54:12;96157.97;;;15.71;100.00
7824;BME280;3957;48.61947800;9.05303100;2022-08-03T01:55:35;96159.84;;;15.71;100.00
7824;BME280;3957;48.61947800;9.05303100;2022-08-03T01:56:58;96155.75;;;15.68;100.00
7824;BME280;3957;48.61947800;9.05303100;2022-08-03T01:58:20;96156.47;;;15.63;100.00
7824;BME280;3957;48.61947800;9.05303100;2022-08-03T01:59:43;96152.34;;;15.61;100.00
7824;BME280;3957;48.61947800;9.05303100;2022-08-03T02:01:04;96154.22;;;15.60;100.00
7824;BME280;3957;48.61947800;9.05303100;2022-08-03T02:02:26;96153.63;;;15.58;100.00
7824;BME280;3957;48.61947800;9.05303100;2022-08-03T02:03:49;96149.16;;;15.52;100.00
7824;BME280;3957;48.61947800;9.05303100;2022-08-03T02:05:13;96147.78;;;15.50;100.00
7824;BME280;3957;48.61947800;9.05303100;2022-08-03T02:06:34;96155.88;;;15.50;100.00
7824;BME280;3957;48.61947800;9.05303100;2022-08-03T02:07:57;96156.91;;;15.48;100.00
7824;BME280;3957;48.61947800;9.05303100;2022-08-03T02:09:21;96150.72;;;15.48;100.00
7824;BME280;3957;48.61947800;9.05303100;2022-08-03T02:10:43;96150.72;;;15.48;100.00
7824;BME280;3957;48.61947800;9.05303100;2022-08-03T02:12:08;96154.78;;;15.51;100.00
7824;BME280;3957;48.61947800;9.05303100;2022-08-03T02:13:32;96148.34;;;15.52;100.00
7824;BME280;3957;48.61947800;9.05303100;2022-08-03T02:14:54;96149.41;;;15.51;100.00
7824;BME280;3957;48.61947800;9.05303100;2022-08-03T02:16:17;96153.97;;;15.50;100.00
7824;BME280;3957;48.61947800;9.05303100;2022-08-03T02:17:39;96148.81;;;15.48;100.00
7824;BME280;3957;48.61947800;9.05303100;2022-08-03T02:19:03;96155.25;;;15.47;100.00
7824;BME280;3957;48.61947800;9.05303100;2022-08-03T02:20:25;96160.09;;;15.45;100.00
7824;BME280;3957;48.61947800;9.05303100;2022-08-03T02:21:47;96150.81;;;15.41;100.00
7824;BME280;3957;48.61947800;9.05303100;2022-08-03T02:23:11;96148.34;;;15.40;100.00
7824;BME280;3957;48.61947800;9.05303100;2022-08-03T02:24:32;96156.88;;;15.37;100.00
7824;BME280;3957;48.61947800;9.05303100;2022-08-03T02:26:02;96159.59;;;15.37;100.00
7824;BME280;3957;48.61947800;9.05303100;2022-08-03T02:27:26;96157.81;;;15.42;100.00
7824;BME280;3957;48.61947800;9.05303100;2022-08-03T02:28:51;96153.84;;;15.45;100.00
7824;BME280;3957;48.61947800;9.05303100;2022-08-03T02:30:14;96152.91;;;15.39;100.00
7824;BME280;3957;48.61947800;9.05303100;2022-08-03T02:31:35;96154.78;;;15.39;100.00
7824;BME280;3957;48.61947800;9.05303100;2022-08-03T02:32:58;96150.91;;;15.35;100.00
7824;BME280;3957;48.61947800;9.05303100;2022-08-03T02:34:22;96145.75;;;15.33;100.00
7824;BME280;3957;48.61947800;9.05303100;2022-08-03T02:35:48;96150.31;;;15.33;100.00
7824;BME280;3957;48.61947800;9.05303100;2022-08-03T02:37:10;96150.78;;;15.29;100.00
7824;BME280;3957;48.61947800;9.05303100;2022-08-03T02:38:35;96152.44;;;15.30;100.00
7824;BME280;3957;48.61947800;9.05303100;2022-08-03T02:40:01;96147.53;;;15.27;100.00
7824;BME280;3957;48.61947800;9.05303100;2022-08-03T02:41:27;96154.19;;;15.25;100.00
7824;BME280;3957;48.61947800;9.05303100;2022-08-03T02:42:52;96146.53;;;15.22;100.00
7824;BME280;3957;48.61947800;9.05303100;2022-08-03T02:44:17;96153.25;;;15.19;100.00
7824;BME280;3957;48.61947800;9.05303100;2022-08-03T02:45:43;96141.84;;;15.17;100.00
7824;BME280;3957;48.61947800;9.05303100;2022-08-03T02:47:07;96147.72;;;15.14;100.00
7824;BME280;3957;48.61947800;9.05303100;2022-08-03T02:48:31;96153.09;;;15.14;100.00
7824;BME280;3957;48.61947800;9.05303100;2022-08-03T02:49:54;96146.91;;;15.13;100.00
7824;BME280;3957;48.61947800;9.05303100;2022-08-03T02:51:17;96150.03;;;15.10;100.00
7824;BME280;3957;48.61947800;9.05303100;2022-08-03T02:52:39;96151.56;;;15.06;100.00
7824;BME280;3957;48.61947800;9.05303100;2022-08-03T02:54:02;96148.63;;;15.08;100.00
7824;BME280;3957;48.61947800;9.05303100;2022-08-03T02:55:24;96147.09;;;15.12;100.00
7824;BME280;3957;48.61947800;9.05303100;2022-08-03T02:56:46;96149.59;;;15.13;100.00
7824;BME280;3957;48.61947800;9.05303100;2022-08-03T02:58:09;96151.22;;;15.14;100.00
7824;BME280;3957;48.61947800;9.05303100;2022-08-03T02:59:31;96146.69;;;15.15;100.00
7824;BME280;3957;48.61947800;9.05303100;2022-08-03T03:00:52;96152.50;;;15.12;100.00
7824;BME280;3957;48.61947800;9.05303100;2022-08-03T03:02:14;96155.19;;;15.12;100.00
7824;BME280;3957;48.61947800;9.05303100;2022-08-03T03:03:36;96154.84;;;15.08;100.00
7824;BME280;3957;48.61947800;9.05303100;2022-08-03T03:04:58;96152.41;;;15.07;100.00
7824;BME280;3957;48.61947800;9.05303100;2022-08-03T03:06:21;96148.84;;;15.06;100.00
7824;BME280;3957;48.61947800;9.05303100;2022-08-03T03:07:42;96149.94;;;15.05;100.00
7824;BME280;3957;48.61947800;9.05303100;2022-08-03T03:09:04;96147.44;;;15.04;100.00
7824;BME280;3957;48.61947800;9.05303100;2022-08-03T03:10:25;96147.69;;;15.02;100.00
7824;BME280;3957;48.61947800;9.05303100;2022-08-03T03:11:47;96148.75;;;15.01;100.00
7824;BME280;3957;48.61947800;9.05303100;2022-08-03T03:13:09;96147.34;;;14.99;100.00
7824;BME280;3957;48.61947800;9.05303100;2022-08-03T03:14:31;96146.38;;;14.93;100.00
7824;BME280;3957;48.61947800;9.05303100;2022-08-03T03:15:53;96143.56;;;14.88;100.00
7824;BME280;3957;48.61947800;9.05303100;2022-08-03T03:17:16;96144.81;;;14.85;100.00
7824;BME280;3957;48.61947800;9.05303100;2022-08-03T03:18:38;96142.94;;;14.86;100.00
7824;BME280;3957;48.61947800;9.05303100;2022-08-03T03:19:59;96143.69;;;14.93;100.00
7824;BME280;3957;48.61947800;9.05303100;2022-08-03T03:21:22;96140.06;;;14.99;100.00
7824;BME280;3957;48.61947800;9.05303100;2022-08-03T03:22:43;96146.50;;;14.98;100.00
7824;BME280;3957;48.61947800;9.05303100;2022-08-03T03:24:06;96142.19;;;14.97;100.00
7824;BME280;3957;48.61947800;9.05303100;2022-08-03T03:25:32;96141.34;;;14.96;100.00
7824;BME280;3957;48.61947800;9.05303100;2022-08-03T03:26:53;96145.06;;;14.95;100.00
7824;BME280;3957;48.61947800;9.05303100;2022-08-03T03:28:14;96141.81;;;14.93;100.00
7824;BME280;3957;48.61947800;9.05303100;2022-08-03T03:29:35;96141.00;;;14.93;100.00
7824;BME280;3957;48.61947800;9.05303100;2022-08-03T03:30:57;96141.44;;;14.90;100.00
7824;BME280;3957;48.61947800;9.05303100;2022-08-03T03:32:18;96139.81;;;14.89;100.00
7824;BME280;3957;48.61947800;9.05303100;2022-08-03T03:33:39;96140.00;;;14.87;100.00
7824;BME280;3957;48.61947800;9.05303100;2022-08-03T03:35:00;96141.09;;;14.86;100.00
7824;BME280;3957;48.61947800;9.05303100;2022-08-03T03:36:21;96135.94;;;14.85;100.00
7824;BME280;3957;48.61947800;9.05303100;2022-08-03T03:37:42;96144.44;;;14.82;100.00
7824;BME280;3957;48.61947800;9.05303100;2022-08-03T03:39:02;96141.66;;;14.76;100.00
7824;BME280;3957;48.61947800;9.05303100;2022-08-03T03:40:23;96148.06;;;14.75;100.00
7824;BME280;3957;48.61947800;9.05303100;2022-08-03T03:41:44;96141.03;;;14.74;100.00
7824;BME280;3957;48.61947800;9.05303100;2022-08-03T03:43:10;96149.13;;;14.74;100.00
7824;BME280;3957;48.61947800;9.05303100;2022-08-03T03:44:31;96141.03;;;14.74;100.00
7824;BME280;3957;48.61947800;9.05303100;2022-08-03T03:45:52;96145.63;;;14.74;100.00
7824;BME280;3957;48.61947800;9.05303100;2022-08-03T03:47:14;96145.63;;;14.74;100.00
7824;BME280;3957;48.61947800;9.05303100;2022-08-03T03:48:35;96141.03;;;14.74;100.00
7824;BME280;3957;48.61947800;9.05303100;2022-08-03T03:49:56;96140.22;;;14.74;100.00
7824;BME280;3957;48.61947800;9.05303100;2022-08-03T03:51:17;96142.91;;;14.74;100.00
7824;BME280;3957;48.61947800;9.05303100;2022-08-03T03:52:38;96142.06;;;14.73;100.00
7824;BME280;3957;48.61947800;9.05303100;2022-08-03T03:54:01;96142.06;;;14.73;100.00
7824;BME280;3957;48.61947800;9.05303100;2022-08-03T03:55:22;96152.28;;;14.71;100.00
7824;BME280;3957;48.61947800;9.05303100;2022-08-03T03:56:43;96143.59;;;14.69;100.00
7824;BME280;3957;48.61947800;9.05303100;2022-08-03T03:58:04;96141.13;;;14.68;100.00
7824;BME280;3957;48.61947800;9.05303100;2022-08-03T03:59:25;96145.69;;;14.67;100.00
7824;BME280;3957;48.61947800;9.05303100;2022-08-03T04:00:46;96145.69;;;14.67;100.00
7824;BME280;3957;48.61947800;9.05303100;2022-08-03T04:02:08;96140.91;;;14.69;100.00
7824;BME280;3957;48.61947800;9.05303100;2022-08-03T04:03:29;96147.34;;;14.68;100.00
7824;BME280;3957;48.61947800;9.05303100;2022-08-03T04:04:50;96148.97;;;14.69;100.00
7824;BME280;3957;48.61947800;9.05303100;2022-08-03T04:06:29;96144.88;;;14.67;100.00
7824;BME280;3957;48.61947800;9.05303100;2022-08-03T04:08:11;96148.84;;;14.64;100.00
7824;BME280;3957;48.61947800;9.05303100;2022-08-03T04:09:52;96142.25;;;14.60;100.00
7824;BME280;3957;48.61947800;9.05303100;2022-08-03T04:11:37;96150.34;;;14.60;100.00
7824;BME280;3957;48.61947800;9.05303100;2022-08-03T04:12:59;96147.25;;;14.56;100.00
7824;BME280;3957;48.61947800;9.05303100;2022-08-03T04:15:45;96145.84;;;14.54;100.00
7824;BME280;3957;48.61947800;9.05303100;2022-08-03T04:17:08;96145.25;;;14.52;100.00
7824;BME280;3957;48.61947800;9.05303100;2022-08-03T04:18:33;96159.19;;;14.49;100.00
7824;BME280;3957;48.61947800;9.05303100;2022-08-03T04:19:57;96157.16;;;14.44;100.00
7824;BME280;3957;48.61947800;9.05303100;2022-08-03T04:21:22;96160.31;;;14.41;100.00
7824;BME280;3957;48.61947800;9.05303100;2022-08-03T04:22:44;96162.19;;;14.40;100.00
7824;BME280;3957;48.61947800;9.05303100;2022-08-03T04:24:08;96156.34;;;14.43;100.00
7824;BME280;3957;48.61947800;9.05303100;2022-08-03T04:25:33;96148.41;;;14.49;100.00
7824;BME280;3957;48.61947800;9.05303100;2022-08-03T04:26:55;96151.47;;;14.52;100.00
7824;BME280;3957;48.61947800;9.05303100;2022-08-03T04:28:18;96154.53;;;14.56;100.00
7824;BME280;3957;48.61947800;9.05303100;2022-08-03T04:29:41;96154.53;;;14.56;100.00
7824;BME280;3957;48.61947800;9.05303100;2022-08-03T04:31:05;96157.00;;;14.57;100.00
7824;BME280;3957;48.61947800;9.05303100;2022-08-03T04:32:27;96161.53;;;14.57;100.00
7824;BME280;3957;48.61947800;9.05303100;2022-08-03T04:33:51;96160.03;;;14.61;100.00
7824;BME280;3957;48.61947800;9.05303100;2022-08-03T04:35:12;96160.44;;;14.65;100.00
7824;BME280;3957;48.61947800;9.05303100;2022-08-03T04:36:37;96158.13;;;14.68;100.00
7824;BME280;3957;48.61947800;9.05303100;2022-08-03T04:38:02;96159.53;;;14.71;100.00
7824;BME280;3957;48.61947800;9.05303100;2022-08-03T04:39:28;96165.28;;;14.74;100.00
7824;BME280;3957;48.61947800;9.05303100;2022-08-03T04:40:51;96165.19;;;14.81;100.00
7824;BME280;3957;48.61947800;9.05303100;2022-08-03T04:42:13;96165.56;;;14.85;100.00
7824;BME280;3957;48.61947800;9.05303100;2022-08-03T04:43:35;96164.41;;;14.92;100.00
7824;BME280;3957;48.61947800;9.05303100;2022-08-03T04:44:59;96167.63;;;15.01;100.00
7824;BME280;3957;48.61947800;9.05303100;2022-08-03T04:46:25;96160.59;;;15.12;100.00
7824;BME280;3957;48.61947800;9.05303100;2022-08-03T04:47:46;96158.16;;;15.22;100.00
7824;BME280;3957;48.61947800;9.05303100;2022-08-03T04:49:08;96166.63;;;15.38;100.00
7824;BME280;3957;48.61947800;9.05303100;2022-08-03T04:50:29;96163.97;;;15.50;100.00
7824;BME280;3957;48.61947800;9.05303100;2022-08-03T04:52:00;96163.94;;;15.61;100.00
7824;BME280;3957;48.61947800;9.05303100;2022-08-03T04:53:21;96158.81;;;15.72;100.00
7824;BME280;3957;48.61947800;9.05303100;2022-08-03T04:54:43;96162.34;;;15.84;100.00
7824;BME280;3957;48.61947800;9.05303100;2022-08-03T04:56:05;96171.25;;;16.08;100.00
7824;BME280;3957;48.61947800;9.05303100;2022-08-03T04:57:25;96170.00;;;16.40;100.00
7824;BME280;3957;48.61947800;9.05303100;2022-08-03T04:58:46;96179.41;;;16.78;100.00
7824;BME280;3957;48.61947800;9.05303100;2022-08-03T05:00:07;96175.03;;;17.17;100.00
7824;BME280;3957;48.61947800;9.05303100;2022-08-03T05:01:28;96174.31;;;17.73;100.00
7824;BME280;3957;48.61947800;9.05303100;2022-08-03T05:02:49;96183.97;;;18.42;100.00
7824;BME280;3957;48.61947800;9.05303100;2022-08-03T05:04:10;96175.66;;;19.20;97.36
7824;BME280;3957;48.61947800;9.05303100;2022-08-03T05:05:30;96175.22;;;19.99;91.51
7824;BME280;3957;48.61947800;9.05303100;2022-08-03T05:06:51;96174.81;;;20.76;86.05
7824;BME280;3957;48.61947800;9.05303100;2022-08-03T05:08:12;96180.41;;;21.48;81.18
7824;BME280;3957;48.61947800;9.05303100;2022-08-03T05:09:33;96180.09;;;22.16;76.27
7824;BME280;3957;48.61947800;9.05303100;2022-08-03T05:10:56;96183.72;;;22.87;70.95
7824;BME280;3957;48.61947800;9.05303100;2022-08-03T05:12:17;96183.63;;;23.53;66.71
7824;BME280;3957;48.61947800;9.05303100;2022-08-03T05:13:38;96189.72;;;24.08;62.86
7824;BME280;3957;48.61947800;9.05303100;2022-08-03T05:14:59;96180.34;;;24.44;61.35
7824;BME280;3957;48.61947800;9.05303100;2022-08-03T05:16:20;96186.38;;;24.70;61.11
7824;BME280;3957;48.61947800;9.05303100;2022-08-03T05:17:41;96180.50;;;25.01;60.07
7824;BME280;3957;48.61947800;9.05303100;2022-08-03T05:19:02;96179.44;;;25.40;58.53
7824;BME280;3957;48.61947800;9.05303100;2022-08-03T05:20:23;96191.25;;;25.55;58.40
7824;BME280;3957;48.61947800;9.05303100;2022-08-03T05:21:43;96181.31;;;25.78;57.28
7824;BME280;3957;48.61947800;9.05303100;2022-08-03T05:23:04;96185.41;;;25.94;55.90
7824;BME280;3957;48.61947800;9.05303100;2022-08-03T05:24:25;96180.31;;;26.21;54.76
7824;BME280;3957;48.61947800;9.05303100;2022-08-03T05:25:46;96188.78;;;26.38;53.91
7824;BME280;3957;48.61947800;9.05303100;2022-08-03T05:27:07;96190.94;;;26.55;53.32
7824;BME280;3957;48.61947800;9.05303100;2022-08-03T05:28:28;96186.34;;;26.51;53.38
7824;BME280;3957;48.61947800;9.05303100;2022-08-03T05:29:49;96189.81;;;26.56;53.17
7824;BME280;3957;48.61947800;9.05303100;2022-08-03T05:31:09;96183.41;;;26.61;53.42
7824;BME280;3957;48.61947800;9.05303100;2022-08-03T05:32:31;96189.84;;;26.70;53.75
7824;BME280;3957;48.61947800;9.05303100;2022-08-03T05:33:53;96190.34;;;26.86;53.08
7824;BME280;3957;48.61947800;9.05303100;2022-08-03T05:35:14;96190.81;;;27.02;52.58
7824;BME280;3957;48.61947800;9.05303100;2022-08-03T05:36:34;96187.44;;;27.19;52.34
7824;BME280;3957;48.61947800;9.05303100;2022-08-03T05:37:55;96187.97;;;27.58;52.05
7824;BME280;3957;48.61947800;9.05303100;2022-08-03T05:39:16;96190.78;;;27.89;51.37
7824;BME280;3957;48.61947800;9.05303100;2022-08-03T05:40:37;96195.53;;;27.97;50.77
7824;BME280;3957;48.61947800;9.05303100;2022-08-03T05:41:58;96192.09;;;27.92;50.67
7824;BME280;3957;48.61947800;9.05303100;2022-08-03T05:43:18;96193.31;;;27.99;50.04
7824;BME280;3957;48.61947800;9.05303100;2022-08-03T05:44:39;96202.50;;;28.17;50.23
7824;BME280;3957;48.61947800;9.05303100;2022-08-03T05:46:01;96198.44;;;28.15;49.54
7824;BME280;3957;48.61947800;9.05303100;2022-08-03T05:47:22;96185.28;;;28.43;48.35
7824;BME280;3957;48.61947800;9.05303100;2022-08-03T05:48:43;96192.78;;;28.51;48.38
7824;BME280;3957;48.61947800;9.05303100;2022-08-03T05:50:04;96194.97;;;28.63;49.39
7824;BME280;3957;48.61947800;9.05303100;2022-08-03T05:51:25;96188.06;;;28.83;49.07
7824;BME280;3957;48.61947800;9.05303100;2022-08-03T05:52:46;96190.50;;;28.85;49.43
7824;BME280;3957;48.61947800;9.05303100;2022-08-03T05:54:08;96191.97;;;28.82;49.08
7824;BME280;3957;48.61947800;9.05303100;2022-08-03T05:55:29;96194.66;;;28.65;49.58
7824;BME280;3957;48.61947800;9.05303100;2022-08-03T05:56:49;96195.16;;;28.76;50.01
7824;BME280;3957;48.61947800;9.05303100;2022-08-03T05:58:10;96196.16;;;28.80;50.02
7824;BME280;3957;48.61947800;9.05303100;2022-08-03T05:59:31;96194.66;;;28.65;50.20
7824;BME280;3957;48.61947800;9.05303100;2022-08-03T06:00:52;96193.19;;;28.67;49.94
7824;BME280;3957;48.61947800;9.05303100;2022-08-03T06:02:12;96193.41;;;28.89;49.53
7824;BME280;3957;48.61947800;9.05303100;2022-08-03T06:03:33;96188.63;;;29.21;48.29
7824;BME280;3957;48.61947800;9.05303100;2022-08-03T06:04:54;96193.47;;;29.15;48.63
7824;BME280;3957;48.61947800;9.05303100;2022-08-03T06:06:15;96188.25;;;28.87;49.35
7824;BME280;3957;48.61947800;9.05303100;2022-08-03T06:07:36;96188.44;;;29.08;49.11
7824;BME280;3957;48.61947800;9.05303100;2022-08-03T06:08:57;96188.16;;;29.18;48.49
7824;BME280;3957;48.61947800;9.05303100;2022-08-03T06:10:18;96185.09;;;29.29;48.93
7824;BME280;3957;48.61947800;9.05303100;2022-08-03T06:11:39;96184.63;;;29.27;49.45
7824;BME280;3957;48.61947800;9.05303100;2022-08-03T06:13:01;96187.38;;;29.35;49.65
7824;BME280;3957;48.61947800;9.05303100;2022-08-03T06:14:22;96191.91;;;29.40;49.45
7824;BME280;3957;48.61947800;9.05303100;2022-08-03T06:15:42;96193.31;;;29.11;49.62
7824;BME280;3957;48.61947800;9.05303100;2022-08-03T06:17:03;96192.25;;;29.30;49.26
7824;BME280;3957;48.61947800;9.05303100;2022-08-03T06:18:24;96187.88;;;29.38;49.24
7824;BME280;3957;48.61947800;9.05303100;2022-08-03T06:19:45;96191.63;;;29.42;48.94
7824;BME280;3957;48.61947800;9.05303100;2022-08-03T06:21:06;96192.59;;;29.46;49.56
7824;BME280;3957;48.61947800;9.05303100;2022-08-03T06:22:27;96199.94;;;28.61;50.43
7824;BME280;3957;48.61947800;9.05303100;2022-08-03T06:23:47;96192.28;;;28.81;51.75
7824;BME280;3957;48.61947800;9.05303100;2022-08-03T06:25:08;96199.59;;;28.94;51.69
7824;BME280;3957;48.61947800;9.05303100;2022-08-03T06:26:31;96196.56;;;29.05;51.78
7824;BME280;3957;48.61947800;9.05303100;2022-08-03T06:27:52;96196.84;;;28.94;51.73
7824;BME280;3957;48.61947800;9.05303100;2022-08-03T06:29:12;96192.13;;;28.86;52.80
7824;BME280;3957;48.61947800;9.05303100;2022-08-03T06:30:33;96196.75;;;28.68;54.09
7824;BME280;3957;48.61947800;9.05303100;2022-08-03T06:31:54;96196.75;;;28.37;54.48
7824;BME280;3957;48.61947800;9.05303100;2022-08-03T06:33:15;96197.69;;;28.32;56.57
7824;BME280;3957;48.61947800;9.05303100;2022-08-03T06:34:36;96193.69;;;28.07;57.90
7824;BME280;3957;48.61947800;9.05303100;2022-08-03T06:35:56;96196.41;;;27.61;56.42
7824;BME280;3957;48.61947800;9.05303100;2022-08-03T06:37:17;96190.03;;;26.88;58.89
7824;BME280;3957;48.61947800;9.05303100;2022-08-03T06:38:38;96191.63;;;26.47;60.34
7824;BME280;3957;48.61947800;9.05303100;2022-08-03T06:39:59;96183.53;;;26.56;62.27
7824;BME280;3957;48.61947800;9.05303100;2022-08-03T06:41:20;96191.53;;;26.38;63.70
7824;BME280;3957;48.61947800;9.05303100;2022-08-03T06:42:41;96190.34;;;26.11;66.40
7824;BME280;3957;48.61947800;9.05303100;2022-08-03T06:44:01;96188.38;;;25.98;64.94